KHY3358 RPLC-RPUO
Flight info
| Callsign | KHY3358 |
|---|---|
| Flight time | 1h 35m |
| Altitude | 19000 |
| Route | RIANO5N RIANO TR25 CAB W1 CUY DCT BS |
| Aircraft | B190/M-SDFGRY/S |
Departure
| Time | 2026-04-26 05:47 |
|---|---|
| Airport | Clark International Airport / Clark Air Base (RPLC) |
Arrival
| Time | 2026-04-26 07:22 |
|---|---|
| Airport | Basco Airport (RPUO) |
| Time | Latitude | Longitude | Altitude | Speed | Heading |
|---|---|---|---|---|---|
| 2026-04-26 05:45 | 15.19110 | 120.56424 | 486 ft | 8 kts | 120° |
| 2026-04-26 05:46 | 15.19074 | 120.56432 | 486 ft | 15 kts | 199° |
| 2026-04-26 05:46 | 15.18612 | 120.56250 | 487 ft | 116 kts | 199° |
| 2026-04-26 05:46 | 15.17699 | 120.55873 | 636 ft | 154 kts | 201° |
| 2026-04-26 05:46 | 15.16670 | 120.55439 | 944 ft | 178 kts | 199° |
| 2026-04-26 05:47 | 15.15434 | 120.54971 | 1327 ft | 202 kts | 199° |
| 2026-04-26 05:47 | 15.14030 | 120.54485 | 1552 ft | 222 kts | 197° |
| 2026-04-26 05:47 | 15.12583 | 120.54037 | 2415 ft | 208 kts | 196° |
| 2026-04-26 05:47 | 15.11302 | 120.53661 | 3403 ft | 186 kts | 196° |
| 2026-04-26 05:48 | 15.10009 | 120.53288 | 3504 ft | 204 kts | 195° |
| 2026-04-26 05:48 | 15.08596 | 120.52892 | 3517 ft | 219 kts | 195° |
| 2026-04-26 05:48 | 15.07097 | 120.52483 | 3742 ft | 221 kts | 195° |
| 2026-04-26 05:48 | 15.05648 | 120.52100 | 4121 ft | 215 kts | 195° |
| 2026-04-26 05:49 | 15.04232 | 120.51739 | 4584 ft | 208 kts | 195° |
| 2026-04-26 05:49 | 15.01326 | 120.51035 | 4910 ft | 221 kts | 194° |
| 2026-04-26 05:49 | 14.99823 | 120.50687 | 5140 ft | 221 kts | 194° |
| 2026-04-26 05:50 | 14.98297 | 120.50598 | 5229 ft | 232 kts | 168° |
| 2026-04-26 05:50 | 14.96931 | 120.51550 | 5132 ft | 249 kts | 126° |
| 2026-04-26 05:50 | 14.96472 | 120.53216 | 5504 ft | 245 kts | 89° |
| 2026-04-26 05:50 | 14.97053 | 120.54838 | 5810 ft | 242 kts | 52° |
| 2026-04-26 05:51 | 14.97909 | 120.55706 | 6036 ft | 239 kts | 37° |
| 2026-04-26 05:51 | 14.98419 | 120.56074 | 6131 ft | 238 kts | 31° |
| 2026-04-26 05:51 | 14.99575 | 120.57252 | 6432 ft | 236 kts | 55° |
| 2026-04-26 05:52 | 15.00451 | 120.58682 | 6728 ft | 235 kts | 60° |
| 2026-04-26 05:52 | 15.01033 | 120.60236 | 7014 ft | 234 kts | 63° |
| 2026-04-26 05:52 | 15.01836 | 120.61696 | 7316 ft | 232 kts | 58° |
| 2026-04-26 05:52 | 15.02657 | 120.63126 | 7609 ft | 231 kts | 58° |
| 2026-04-26 05:53 | 15.03474 | 120.64558 | 7903 ft | 231 kts | 58° |
| 2026-04-26 05:53 | 15.04278 | 120.65984 | 8197 ft | 230 kts | 58° |
| 2026-04-26 05:53 | 15.05075 | 120.67409 | 8491 ft | 229 kts | 58° |
| 2026-04-26 05:53 | 15.05858 | 120.68827 | 8784 ft | 228 kts | 58° |
| 2026-04-26 05:54 | 15.06637 | 120.70250 | 9080 ft | 227 kts | 58° |
| 2026-04-26 05:54 | 15.07472 | 120.71618 | 9321 ft | 226 kts | 43° |
| 2026-04-26 05:54 | 15.08630 | 120.72751 | 9510 ft | 227 kts | 37° |
| 2026-04-26 05:54 | 15.09991 | 120.73469 | 9671 ft | 224 kts | 17° |
| 2026-04-26 05:55 | 15.11385 | 120.74215 | 9895 ft | 228 kts | 30° |
| 2026-04-26 05:55 | 15.12657 | 120.75221 | 10103 ft | 230 kts | 38° |
| 2026-04-26 05:55 | 15.13567 | 120.76589 | 10175 ft | 240 kts | 58° |
| 2026-04-26 05:55 | 15.14740 | 120.77736 | 10270 ft | 233 kts | 19° |
| 2026-04-26 05:56 | 15.16283 | 120.78154 | 10476 ft | 227 kts | 7° |
| 2026-04-26 05:56 | 15.17819 | 120.78438 | 10666 ft | 226 kts | 6° |
| 2026-04-26 05:56 | 15.19364 | 120.78728 | 10864 ft | 224 kts | 6° |
| 2026-04-26 05:56 | 15.20899 | 120.79022 | 11062 ft | 223 kts | 7° |
| 2026-04-26 05:57 | 15.22411 | 120.79314 | 11335 ft | 218 kts | 7° |
| 2026-04-26 05:57 | 15.23857 | 120.79593 | 11661 ft | 212 kts | 7° |
| 2026-04-26 05:57 | 15.25308 | 120.79873 | 11886 ft | 211 kts | 7° |
| 2026-04-26 05:57 | 15.26746 | 120.80149 | 12021 ft | 214 kts | 7° |
| 2026-04-26 05:58 | 15.28215 | 120.80433 | 12213 ft | 214 kts | 7° |
| 2026-04-26 05:58 | 15.29661 | 120.80713 | 12411 ft | 213 kts | 7° |
| 2026-04-26 05:58 | 15.31123 | 120.80995 | 12572 ft | 214 kts | 7° |
| 2026-04-26 05:58 | 15.32598 | 120.81280 | 12733 ft | 214 kts | 7° |
| 2026-04-26 05:59 | 15.34056 | 120.81611 | 12876 ft | 218 kts | 18° |
| 2026-04-26 05:59 | 15.35322 | 120.82537 | 12784 ft | 235 kts | 43° |
| 2026-04-26 05:59 | 15.36351 | 120.83861 | 13014 ft | 231 kts | 50° |
| 2026-04-26 05:59 | 15.37249 | 120.85198 | 13284 ft | 226 kts | 51° |
| 2026-04-26 06:00 | 15.38123 | 120.86549 | 13469 ft | 225 kts | 52° |
| 2026-04-26 06:00 | 15.38987 | 120.87897 | 13599 ft | 226 kts | 52° |
| 2026-04-26 06:00 | 15.39852 | 120.89254 | 13735 ft | 227 kts | 52° |
| 2026-04-26 06:00 | 15.40721 | 120.90620 | 13885 ft | 227 kts | 52° |
| 2026-04-26 06:01 | 15.41594 | 120.91992 | 14026 ft | 227 kts | 52° |
| 2026-04-26 06:01 | 15.42460 | 120.93354 | 14166 ft | 227 kts | 52° |
| 2026-04-26 06:01 | 15.43329 | 120.94721 | 14315 ft | 227 kts | 52° |
| 2026-04-26 06:01 | 15.44197 | 120.96086 | 14459 ft | 227 kts | 52° |
| 2026-04-26 06:02 | 15.45064 | 120.97450 | 14594 ft | 227 kts | 52° |
| 2026-04-26 06:02 | 15.45936 | 120.98823 | 14716 ft | 228 kts | 52° |
| 2026-04-26 06:02 | 15.46804 | 121.00190 | 14855 ft | 228 kts | 52° |
| 2026-04-26 06:02 | 15.47685 | 121.01541 | 14979 ft | 226 kts | 45° |
| 2026-04-26 06:03 | 15.48931 | 121.02532 | 14924 ft | 227 kts | 26° |
| 2026-04-26 06:03 | 15.50290 | 121.03301 | 15136 ft | 221 kts | 24° |
| 2026-04-26 06:03 | 15.51638 | 121.04026 | 15330 ft | 218 kts | 23° |
| 2026-04-26 06:03 | 15.53010 | 121.04740 | 15428 ft | 222 kts | 22° |
| 2026-04-26 06:04 | 15.54406 | 121.05452 | 15649 ft | 225 kts | 22° |
| 2026-04-26 06:04 | 15.55806 | 121.06160 | 15899 ft | 226 kts | 22° |
| 2026-04-26 06:04 | 15.57208 | 121.06865 | 16154 ft | 226 kts | 22° |
| 2026-04-26 06:04 | 15.58616 | 121.07569 | 16454 ft | 224 kts | 22° |
| 2026-04-26 06:05 | 15.60028 | 121.08273 | 16752 ft | 223 kts | 22° |
| 2026-04-26 06:05 | 15.61403 | 121.08957 | 17030 ft | 222 kts | 22° |
| 2026-04-26 06:05 | 15.62797 | 121.09649 | 17271 ft | 222 kts | 22° |
| 2026-04-26 06:05 | 15.64197 | 121.10345 | 17498 ft | 223 kts | 22° |
| 2026-04-26 06:06 | 15.65581 | 121.11031 | 17723 ft | 223 kts | 22° |
| 2026-04-26 06:06 | 15.66987 | 121.11730 | 17947 ft | 223 kts | 22° |
| 2026-04-26 06:06 | 15.68389 | 121.12427 | 18160 ft | 224 kts | 22° |
| 2026-04-26 06:06 | 15.69777 | 121.13116 | 18363 ft | 224 kts | 23° |
| 2026-04-26 06:07 | 15.71193 | 121.13819 | 18563 ft | 224 kts | 23° |
| 2026-04-26 06:07 | 15.72589 | 121.14513 | 18759 ft | 224 kts | 23° |
| 2026-04-26 06:07 | 15.73988 | 121.15208 | 19037 ft | 221 kts | 23° |
| 2026-04-26 06:07 | 15.75371 | 121.15894 | 19269 ft | 220 kts | 23° |
| 2026-04-26 06:08 | 15.76766 | 121.16587 | 19360 ft | 226 kts | 23° |
| 2026-04-26 06:08 | 15.78202 | 121.17300 | 19375 ft | 232 kts | 23° |
| 2026-04-26 06:08 | 15.79670 | 121.18030 | 19285 ft | 242 kts | 23° |
| 2026-04-26 06:08 | 15.81208 | 121.18796 | 19199 ft | 249 kts | 23° |
| 2026-04-26 06:09 | 15.82790 | 121.19584 | 19109 ft | 254 kts | 23° |
| 2026-04-26 06:09 | 15.84401 | 121.20385 | 19015 ft | 258 kts | 23° |
| 2026-04-26 06:09 | 15.86011 | 121.21187 | 18979 ft | 259 kts | 23° |
| 2026-04-26 06:09 | 15.87647 | 121.22001 | 18969 ft | 259 kts | 23° |
| 2026-04-26 06:10 | 15.89263 | 121.22805 | 18968 ft | 259 kts | 23° |
| 2026-04-26 06:10 | 15.90889 | 121.23614 | 18968 ft | 259 kts | 23° |
| 2026-04-26 06:10 | 15.92486 | 121.24410 | 18969 ft | 258 kts | 23° |
| 2026-04-26 06:10 | 15.94118 | 121.25221 | 18969 ft | 258 kts | 23° |
| 2026-04-26 06:11 | 15.95734 | 121.26027 | 18968 ft | 258 kts | 23° |
| 2026-04-26 06:11 | 15.97354 | 121.26834 | 18969 ft | 258 kts | 23° |
| 2026-04-26 06:11 | 15.98958 | 121.27632 | 18968 ft | 258 kts | 23° |
| 2026-04-26 06:11 | 16.00561 | 121.28431 | 18968 ft | 258 kts | 23° |
| 2026-04-26 06:12 | 16.02172 | 121.29234 | 18967 ft | 257 kts | 23° |
| 2026-04-26 06:12 | 16.03789 | 121.30040 | 18968 ft | 257 kts | 23° |
| 2026-04-26 06:12 | 16.05409 | 121.30847 | 18968 ft | 257 kts | 23° |
| 2026-04-26 06:12 | 16.07005 | 121.31642 | 18969 ft | 257 kts | 23° |
| 2026-04-26 06:13 | 16.08615 | 121.32445 | 18969 ft | 258 kts | 23° |
| 2026-04-26 06:13 | 16.10233 | 121.33251 | 18969 ft | 258 kts | 23° |
| 2026-04-26 06:13 | 16.11839 | 121.34054 | 18970 ft | 256 kts | 23° |
| 2026-04-26 06:13 | 16.13430 | 121.34847 | 18974 ft | 258 kts | 23° |
| 2026-04-26 06:14 | 16.15057 | 121.35658 | 18975 ft | 259 kts | 23° |
| 2026-04-26 06:14 | 16.16684 | 121.36471 | 18975 ft | 260 kts | 23° |
| 2026-04-26 06:14 | 16.18298 | 121.37276 | 18974 ft | 260 kts | 23° |
| 2026-04-26 06:14 | 16.19942 | 121.38097 | 18974 ft | 261 kts | 23° |
| 2026-04-26 06:15 | 16.21573 | 121.38911 | 18974 ft | 261 kts | 23° |
| 2026-04-26 06:15 | 16.23189 | 121.39718 | 18973 ft | 261 kts | 23° |
| 2026-04-26 06:15 | 16.24828 | 121.40537 | 18973 ft | 262 kts | 23° |
| 2026-04-26 06:15 | 16.26462 | 121.41354 | 18973 ft | 262 kts | 23° |
| 2026-04-26 06:16 | 16.28101 | 121.42173 | 18973 ft | 262 kts | 23° |
| 2026-04-26 06:16 | 16.29753 | 121.42999 | 18973 ft | 262 kts | 23° |
| 2026-04-26 06:16 | 16.31392 | 121.43818 | 18973 ft | 262 kts | 23° |
| 2026-04-26 06:16 | 16.33027 | 121.44636 | 18973 ft | 262 kts | 23° |
| 2026-04-26 06:17 | 16.34681 | 121.45463 | 18972 ft | 262 kts | 23° |
| 2026-04-26 06:17 | 16.36303 | 121.46275 | 18972 ft | 262 kts | 23° |
| 2026-04-26 06:17 | 16.37961 | 121.47104 | 18972 ft | 262 kts | 23° |
| 2026-04-26 06:17 | 16.39596 | 121.47922 | 18972 ft | 262 kts | 23° |
| 2026-04-26 06:18 | 16.41226 | 121.48737 | 18972 ft | 262 kts | 23° |
| 2026-04-26 06:18 | 16.42878 | 121.49564 | 18972 ft | 262 kts | 23° |
| 2026-04-26 06:18 | 16.44519 | 121.50386 | 18971 ft | 262 kts | 23° |
| 2026-04-26 06:18 | 16.46147 | 121.51202 | 18972 ft | 262 kts | 23° |
| 2026-04-26 06:19 | 16.47795 | 121.52027 | 18971 ft | 262 kts | 23° |
| 2026-04-26 06:19 | 16.49429 | 121.52845 | 18971 ft | 262 kts | 23° |
| 2026-04-26 06:19 | 16.51064 | 121.53664 | 18971 ft | 262 kts | 23° |
| 2026-04-26 06:19 | 16.52710 | 121.54490 | 18971 ft | 262 kts | 23° |
| 2026-04-26 06:20 | 16.54339 | 121.55306 | 18971 ft | 262 kts | 23° |
| 2026-04-26 06:20 | 16.55980 | 121.56129 | 18971 ft | 262 kts | 23° |
| 2026-04-26 06:20 | 16.57617 | 121.56950 | 18971 ft | 262 kts | 23° |
| 2026-04-26 06:20 | 16.59255 | 121.57770 | 18971 ft | 262 kts | 23° |
| 2026-04-26 06:21 | 16.60918 | 121.58605 | 18971 ft | 262 kts | 23° |
| 2026-04-26 06:21 | 16.62557 | 121.59428 | 18971 ft | 262 kts | 23° |
| 2026-04-26 06:21 | 16.64184 | 121.60244 | 18970 ft | 262 kts | 23° |
| 2026-04-26 06:21 | 16.65816 | 121.61063 | 18970 ft | 262 kts | 23° |
| 2026-04-26 06:22 | 16.67474 | 121.61896 | 18970 ft | 262 kts | 23° |
| 2026-04-26 06:22 | 16.69091 | 121.62708 | 18970 ft | 262 kts | 23° |
| 2026-04-26 06:22 | 16.70733 | 121.63532 | 18938 ft | 264 kts | 23° |
| 2026-04-26 06:22 | 16.72402 | 121.64370 | 18893 ft | 265 kts | 23° |
| 2026-04-26 06:23 | 16.74062 | 121.65204 | 18878 ft | 265 kts | 23° |
| 2026-04-26 06:23 | 16.75153 | 121.65752 | 18879 ft | 264 kts | 23° |
| 2026-04-26 06:23 | 16.77351 | 121.66856 | 18886 ft | 264 kts | 23° |
| 2026-04-26 06:23 | 16.78995 | 121.67683 | 18893 ft | 263 kts | 23° |
| 2026-04-26 06:24 | 16.80655 | 121.68518 | 18899 ft | 263 kts | 23° |
| 2026-04-26 06:24 | 16.82300 | 121.69345 | 18899 ft | 263 kts | 23° |
| 2026-04-26 06:24 | 16.83943 | 121.70171 | 18899 ft | 263 kts | 23° |
| 2026-04-26 06:24 | 16.85579 | 121.70994 | 18899 ft | 263 kts | 23° |
| 2026-04-26 06:25 | 16.87221 | 121.71820 | 18899 ft | 263 kts | 23° |
| 2026-04-26 06:25 | 16.88856 | 121.72643 | 18899 ft | 262 kts | 23° |
| 2026-04-26 06:25 | 16.89412 | 121.72923 | 18899 ft | 262 kts | 23° |
| 2026-04-26 06:26 | 16.93892 | 121.74709 | 18928 ft | 258 kts | 5° |
| 2026-04-26 06:26 | 16.95679 | 121.74885 | 18900 ft | 259 kts | 4° |
| 2026-04-26 06:26 | 16.97466 | 121.75032 | 18895 ft | 259 kts | 4° |
| 2026-04-26 06:26 | 16.99264 | 121.75165 | 18897 ft | 259 kts | 3° |
| 2026-04-26 06:27 | 17.01075 | 121.75290 | 18899 ft | 259 kts | 3° |
| 2026-04-26 06:27 | 17.02853 | 121.75407 | 18899 ft | 259 kts | 4° |
| 2026-04-26 06:27 | 17.04657 | 121.75524 | 18898 ft | 259 kts | 4° |
| 2026-04-26 06:27 | 17.06445 | 121.75639 | 18898 ft | 259 kts | 4° |
| 2026-04-26 06:28 | 17.08241 | 121.75753 | 18898 ft | 258 kts | 4° |
| 2026-04-26 06:28 | 17.10027 | 121.75866 | 18898 ft | 258 kts | 4° |
| 2026-04-26 06:28 | 17.11811 | 121.75980 | 18904 ft | 258 kts | 5° |
| 2026-04-26 06:28 | 17.13598 | 121.76093 | 18905 ft | 259 kts | 5° |
| 2026-04-26 06:29 | 17.15396 | 121.76210 | 18904 ft | 259 kts | 5° |
| 2026-04-26 06:29 | 17.17191 | 121.76325 | 18904 ft | 259 kts | 5° |
| 2026-04-26 06:29 | 17.18987 | 121.76440 | 18904 ft | 259 kts | 5° |
| 2026-04-26 06:29 | 17.20782 | 121.76554 | 18904 ft | 259 kts | 5° |
| 2026-04-26 06:30 | 17.22563 | 121.76667 | 18904 ft | 259 kts | 5° |
| 2026-04-26 06:30 | 17.24357 | 121.76781 | 18904 ft | 259 kts | 5° |
| 2026-04-26 06:30 | 17.26163 | 121.76895 | 18903 ft | 259 kts | 5° |
| 2026-04-26 06:30 | 17.27963 | 121.77010 | 18903 ft | 259 kts | 5° |
| 2026-04-26 06:31 | 17.29744 | 121.77123 | 18903 ft | 259 kts | 5° |
| 2026-04-26 06:31 | 17.31536 | 121.77236 | 18903 ft | 259 kts | 5° |
| 2026-04-26 06:31 | 17.33338 | 121.77350 | 18903 ft | 259 kts | 5° |
| 2026-04-26 06:31 | 17.35139 | 121.77464 | 18903 ft | 259 kts | 5° |
| 2026-04-26 06:32 | 17.36925 | 121.77577 | 18903 ft | 259 kts | 5° |
| 2026-04-26 06:32 | 17.38717 | 121.77691 | 18903 ft | 259 kts | 5° |
| 2026-04-26 06:32 | 17.40518 | 121.77805 | 18902 ft | 259 kts | 5° |
| 2026-04-26 06:32 | 17.42310 | 121.77918 | 18902 ft | 259 kts | 5° |
| 2026-04-26 06:33 | 17.44100 | 121.78032 | 18902 ft | 259 kts | 5° |
| 2026-04-26 06:33 | 17.45904 | 121.78146 | 18902 ft | 259 kts | 5° |
| 2026-04-26 06:33 | 17.47681 | 121.78259 | 18902 ft | 259 kts | 5° |
| 2026-04-26 06:33 | 17.49484 | 121.78374 | 18902 ft | 259 kts | 5° |
| 2026-04-26 06:34 | 17.51277 | 121.78487 | 18902 ft | 259 kts | 5° |
| 2026-04-26 06:34 | 17.53060 | 121.78600 | 18902 ft | 259 kts | 5° |
| 2026-04-26 06:34 | 17.54866 | 121.78715 | 18902 ft | 259 kts | 5° |
| 2026-04-26 06:34 | 17.56656 | 121.78828 | 18902 ft | 259 kts | 5° |
| 2026-04-26 06:35 | 17.57863 | 121.78905 | 18901 ft | 259 kts | 5° |
| 2026-04-26 06:35 | 17.59658 | 121.79019 | 18901 ft | 259 kts | 5° |
| 2026-04-26 06:35 | 17.63225 | 121.79247 | 18901 ft | 259 kts | 5° |
| 2026-04-26 06:36 | 17.65621 | 121.79398 | 18901 ft | 259 kts | 5° |
| 2026-04-26 06:36 | 17.67423 | 121.79513 | 18901 ft | 259 kts | 5° |
| 2026-04-26 06:36 | 17.69200 | 121.79626 | 18901 ft | 259 kts | 5° |
| 2026-04-26 06:36 | 17.71000 | 121.79741 | 18901 ft | 259 kts | 5° |
| 2026-04-26 06:37 | 17.72793 | 121.79855 | 18900 ft | 259 kts | 5° |
| 2026-04-26 06:37 | 17.74584 | 121.79968 | 18900 ft | 259 kts | 5° |
| 2026-04-26 06:37 | 17.76376 | 121.80082 | 18900 ft | 259 kts | 5° |
| 2026-04-26 06:37 | 17.78174 | 121.80196 | 18900 ft | 259 kts | 5° |
| 2026-04-26 06:38 | 17.79962 | 121.80310 | 18900 ft | 259 kts | 5° |
| 2026-04-26 06:38 | 17.81742 | 121.80424 | 18900 ft | 259 kts | 5° |
| 2026-04-26 06:38 | 17.83551 | 121.80540 | 18900 ft | 259 kts | 5° |
| 2026-04-26 06:38 | 17.85335 | 121.80653 | 18900 ft | 259 kts | 5° |
| 2026-04-26 06:39 | 17.86530 | 121.80729 | 18900 ft | 259 kts | 5° |
| 2026-04-26 06:39 | 17.88320 | 121.80843 | 18900 ft | 259 kts | 5° |
| 2026-04-26 06:39 | 17.90720 | 121.80996 | 18899 ft | 259 kts | 5° |
| 2026-04-26 06:39 | 17.92489 | 121.81109 | 18899 ft | 259 kts | 5° |
| 2026-04-26 06:40 | 17.94280 | 121.81222 | 18899 ft | 259 kts | 5° |
| 2026-04-26 06:40 | 17.96089 | 121.81338 | 18899 ft | 259 kts | 5° |
| 2026-04-26 06:40 | 17.97874 | 121.81452 | 18899 ft | 258 kts | 5° |
| 2026-04-26 06:40 | 17.99667 | 121.81567 | 18899 ft | 258 kts | 5° |
| 2026-04-26 06:41 | 18.01449 | 121.81680 | 18899 ft | 258 kts | 5° |
| 2026-04-26 06:41 | 18.03238 | 121.81795 | 18899 ft | 258 kts | 5° |
| 2026-04-26 06:41 | 18.05038 | 121.81910 | 18899 ft | 258 kts | 5° |
| 2026-04-26 06:41 | 18.06820 | 121.82023 | 18898 ft | 258 kts | 5° |
| 2026-04-26 06:42 | 18.08621 | 121.82138 | 18898 ft | 258 kts | 5° |
| 2026-04-26 06:42 | 18.10401 | 121.82252 | 18899 ft | 258 kts | 5° |
| 2026-04-26 06:42 | 18.12195 | 121.82367 | 18904 ft | 259 kts | 5° |
| 2026-04-26 06:42 | 18.13982 | 121.82481 | 18905 ft | 259 kts | 5° |
| 2026-04-26 06:43 | 18.15768 | 121.82595 | 18904 ft | 259 kts | 5° |
| 2026-04-26 06:43 | 18.17566 | 121.82710 | 18904 ft | 259 kts | 5° |
| 2026-04-26 06:43 | 18.19359 | 121.82825 | 18904 ft | 259 kts | 5° |
| 2026-04-26 06:43 | 18.21173 | 121.82941 | 18904 ft | 259 kts | 5° |
| 2026-04-26 06:44 | 18.22950 | 121.83055 | 18903 ft | 259 kts | 5° |
| 2026-04-26 06:44 | 18.24768 | 121.83171 | 18903 ft | 260 kts | 5° |
| 2026-04-26 06:44 | 18.26563 | 121.83285 | 18903 ft | 260 kts | 5° |
| 2026-04-26 06:44 | 18.28367 | 121.83401 | 18903 ft | 260 kts | 5° |
| 2026-04-26 06:45 | 18.30144 | 121.83515 | 18903 ft | 260 kts | 5° |
| 2026-04-26 06:45 | 18.31963 | 121.83631 | 18903 ft | 260 kts | 5° |
| 2026-04-26 06:45 | 18.33759 | 121.83746 | 18903 ft | 260 kts | 5° |
| 2026-04-26 06:45 | 18.35554 | 121.83862 | 18903 ft | 260 kts | 5° |
| 2026-04-26 06:46 | 18.37351 | 121.83977 | 18902 ft | 260 kts | 5° |
| 2026-04-26 06:46 | 18.39134 | 121.84091 | 18903 ft | 260 kts | 5° |
| 2026-04-26 06:46 | 18.40928 | 121.84206 | 18902 ft | 260 kts | 5° |
| 2026-04-26 06:46 | 18.42734 | 121.84322 | 18902 ft | 259 kts | 5° |
| 2026-04-26 06:47 | 18.44530 | 121.84437 | 18902 ft | 259 kts | 5° |
| 2026-04-26 06:47 | 18.46335 | 121.84553 | 18902 ft | 259 kts | 5° |
| 2026-04-26 06:47 | 18.48125 | 121.84668 | 18902 ft | 259 kts | 5° |
| 2026-04-26 06:47 | 18.49932 | 121.84784 | 18902 ft | 259 kts | 5° |
| 2026-04-26 06:48 | 18.51730 | 121.84899 | 18902 ft | 259 kts | 5° |
| 2026-04-26 06:48 | 18.53524 | 121.85014 | 18902 ft | 259 kts | 5° |
| 2026-04-26 06:48 | 18.55320 | 121.85129 | 18902 ft | 259 kts | 5° |
| 2026-04-26 06:48 | 18.57115 | 121.85245 | 18901 ft | 259 kts | 5° |
| 2026-04-26 06:49 | 18.58911 | 121.85360 | 18901 ft | 259 kts | 5° |
| 2026-04-26 06:49 | 18.60704 | 121.85475 | 18901 ft | 259 kts | 5° |
| 2026-04-26 06:49 | 18.62501 | 121.85591 | 18901 ft | 259 kts | 5° |
| 2026-04-26 06:49 | 18.64291 | 121.85706 | 18901 ft | 259 kts | 5° |
| 2026-04-26 06:50 | 18.66096 | 121.85822 | 18901 ft | 259 kts | 5° |
| 2026-04-26 06:50 | 18.67889 | 121.85938 | 18901 ft | 259 kts | 5° |
| 2026-04-26 06:50 | 18.69680 | 121.86053 | 18901 ft | 259 kts | 5° |
| 2026-04-26 06:50 | 18.71481 | 121.86169 | 18900 ft | 259 kts | 5° |
| 2026-04-26 06:51 | 18.73265 | 121.86283 | 18900 ft | 259 kts | 5° |
| 2026-04-26 06:51 | 18.76874 | 121.86515 | 18900 ft | 259 kts | 5° |
| 2026-04-26 06:51 | 18.78654 | 121.86630 | 18900 ft | 259 kts | 5° |
| 2026-04-26 06:52 | 18.80470 | 121.86747 | 18900 ft | 259 kts | 5° |
| 2026-04-26 06:52 | 18.82250 | 121.86861 | 18900 ft | 259 kts | 5° |
| 2026-04-26 06:52 | 18.84040 | 121.86977 | 18900 ft | 259 kts | 5° |
| 2026-04-26 06:52 | 18.85832 | 121.87093 | 18900 ft | 259 kts | 5° |
| 2026-04-26 06:53 | 18.87648 | 121.87209 | 18900 ft | 259 kts | 5° |
| 2026-04-26 06:53 | 18.89446 | 121.87324 | 18899 ft | 259 kts | 5° |
| 2026-04-26 06:53 | 18.91229 | 121.87437 | 18899 ft | 259 kts | 5° |
| 2026-04-26 06:53 | 18.93028 | 121.87553 | 18899 ft | 259 kts | 5° |
| 2026-04-26 06:54 | 18.94828 | 121.87668 | 18899 ft | 260 kts | 5° |
| 2026-04-26 06:54 | 18.96625 | 121.87784 | 18899 ft | 260 kts | 5° |
| 2026-04-26 06:54 | 18.98421 | 121.87899 | 18899 ft | 260 kts | 5° |
| 2026-04-26 06:54 | 19.00227 | 121.88016 | 18899 ft | 261 kts | 6° |
| 2026-04-26 06:55 | 19.02038 | 121.88133 | 18899 ft | 261 kts | 6° |
| 2026-04-26 06:55 | 19.03861 | 121.88251 | 18899 ft | 262 kts | 6° |
| 2026-04-26 06:55 | 19.05681 | 121.88369 | 18900 ft | 262 kts | 6° |
| 2026-04-26 06:55 | 19.07484 | 121.88487 | 18900 ft | 263 kts | 6° |
| 2026-04-26 06:56 | 19.09299 | 121.88605 | 18900 ft | 263 kts | 6° |
| 2026-04-26 06:56 | 19.11136 | 121.88725 | 18904 ft | 263 kts | 6° |
| 2026-04-26 06:56 | 19.12954 | 121.88843 | 18903 ft | 264 kts | 6° |
| 2026-04-26 06:56 | 19.14794 | 121.88963 | 18904 ft | 264 kts | 6° |
| 2026-04-26 06:57 | 19.16626 | 121.89082 | 18904 ft | 264 kts | 6° |
| 2026-04-26 06:57 | 19.18449 | 121.89199 | 18903 ft | 264 kts | 6° |
| 2026-04-26 06:57 | 19.20265 | 121.89317 | 18903 ft | 264 kts | 6° |
| 2026-04-26 06:57 | 19.22098 | 121.89435 | 18903 ft | 265 kts | 6° |
| 2026-04-26 06:58 | 19.23935 | 121.89554 | 18903 ft | 265 kts | 6° |
| 2026-04-26 06:58 | 19.25762 | 121.89672 | 18903 ft | 265 kts | 6° |
| 2026-04-26 06:58 | 19.27609 | 121.89792 | 18903 ft | 265 kts | 6° |
| 2026-04-26 06:58 | 19.29443 | 121.89911 | 18903 ft | 265 kts | 6° |
| 2026-04-26 06:59 | 19.31282 | 121.90031 | 18903 ft | 265 kts | 6° |
| 2026-04-26 06:59 | 19.33110 | 121.90148 | 18903 ft | 265 kts | 6° |
| 2026-04-26 06:59 | 19.34944 | 121.90267 | 18902 ft | 265 kts | 6° |
| 2026-04-26 06:59 | 19.36781 | 121.90387 | 18903 ft | 265 kts | 6° |
| 2026-04-26 07:00 | 19.38602 | 121.90505 | 18902 ft | 265 kts | 6° |
| 2026-04-26 07:00 | 19.40453 | 121.90625 | 18902 ft | 265 kts | 6° |
| 2026-04-26 07:00 | 19.42275 | 121.90743 | 18902 ft | 265 kts | 6° |
| 2026-04-26 07:00 | 19.44120 | 121.90863 | 18902 ft | 265 kts | 6° |
| 2026-04-26 07:01 | 19.45952 | 121.90982 | 18898 ft | 262 kts | 6° |
| 2026-04-26 07:01 | 19.47706 | 121.91098 | 18768 ft | 248 kts | 6° |
| 2026-04-26 07:01 | 19.49389 | 121.91204 | 18538 ft | 235 kts | 6° |
| 2026-04-26 07:01 | 19.50981 | 121.91303 | 18310 ft | 223 kts | 6° |
| 2026-04-26 07:02 | 19.52483 | 121.91398 | 18074 ft | 216 kts | 6° |
| 2026-04-26 07:02 | 19.53973 | 121.91495 | 17776 ft | 216 kts | 6° |
| 2026-04-26 07:02 | 19.55470 | 121.91593 | 17468 ft | 215 kts | 6° |
| 2026-04-26 07:02 | 19.56959 | 121.91691 | 17184 ft | 214 kts | 6° |
| 2026-04-26 07:03 | 19.58423 | 121.91787 | 16906 ft | 212 kts | 6° |
| 2026-04-26 07:03 | 19.59893 | 121.91882 | 16617 ft | 211 kts | 6° |
| 2026-04-26 07:03 | 19.61352 | 121.91978 | 16339 ft | 210 kts | 6° |
| 2026-04-26 07:03 | 19.62804 | 121.92072 | 16069 ft | 209 kts | 6° |
| 2026-04-26 07:04 | 19.64247 | 121.92166 | 15802 ft | 208 kts | 6° |
| 2026-04-26 07:04 | 19.65693 | 121.92261 | 15536 ft | 207 kts | 6° |
| 2026-04-26 07:04 | 19.67104 | 121.92352 | 15278 ft | 206 kts | 6° |
| 2026-04-26 07:04 | 19.68535 | 121.92446 | 15020 ft | 205 kts | 6° |
| 2026-04-26 07:05 | 19.69942 | 121.92537 | 14767 ft | 204 kts | 6° |
| 2026-04-26 07:05 | 19.71354 | 121.92629 | 14515 ft | 203 kts | 6° |
| 2026-04-26 07:05 | 19.72760 | 121.92721 | 14267 ft | 202 kts | 6° |
| 2026-04-26 07:05 | 19.74159 | 121.92812 | 14023 ft | 201 kts | 6° |
| 2026-04-26 07:06 | 19.75551 | 121.92902 | 13778 ft | 200 kts | 6° |
| 2026-04-26 07:06 | 19.76466 | 121.92963 | 13610 ft | 199 kts | 6° |
| 2026-04-26 07:06 | 19.77841 | 121.93053 | 13356 ft | 198 kts | 6° |
| 2026-04-26 07:06 | 19.79676 | 121.93172 | 13030 ft | 197 kts | 6° |
| 2026-04-26 07:07 | 19.81025 | 121.93260 | 12792 ft | 196 kts | 6° |
| 2026-04-26 07:07 | 19.82393 | 121.93349 | 12548 ft | 195 kts | 6° |
| 2026-04-26 07:07 | 19.83731 | 121.93436 | 12314 ft | 195 kts | 6° |
| 2026-04-26 07:07 | 19.85088 | 121.93525 | 12082 ft | 194 kts | 6° |
| 2026-04-26 07:08 | 19.86420 | 121.93612 | 11854 ft | 193 kts | 6° |
| 2026-04-26 07:08 | 19.87301 | 121.93669 | 11717 ft | 192 kts | 5° |
| 2026-04-26 07:08 | 19.88622 | 121.93756 | 11512 ft | 190 kts | 5° |
| 2026-04-26 07:08 | 19.89068 | 121.93786 | 11442 ft | 190 kts | 5° |
| 2026-04-26 07:09 | 19.91698 | 121.93958 | 11019 ft | 189 kts | 5° |
| 2026-04-26 07:09 | 19.93001 | 121.94044 | 10809 ft | 188 kts | 5° |
| 2026-04-26 07:09 | 19.94295 | 121.94128 | 10605 ft | 188 kts | 5° |
| 2026-04-26 07:09 | 19.95604 | 121.94214 | 10399 ft | 188 kts | 5° |
| 2026-04-26 07:10 | 19.99492 | 121.94468 | 9789 ft | 187 kts | 5° |
| 2026-04-26 07:11 | 20.02091 | 121.94638 | 9382 ft | 188 kts | 4° |
| 2026-04-26 07:11 | 20.03393 | 121.94723 | 9178 ft | 188 kts | 4° |
| 2026-04-26 07:11 | 20.04691 | 121.94807 | 8975 ft | 188 kts | 4° |
| 2026-04-26 07:11 | 20.06004 | 121.94894 | 8770 ft | 188 kts | 4° |
| 2026-04-26 07:12 | 20.07300 | 121.94978 | 8568 ft | 188 kts | 4° |
| 2026-04-26 07:12 | 20.08603 | 121.95064 | 8364 ft | 189 kts | 4° |
| 2026-04-26 07:12 | 20.09911 | 121.95149 | 8160 ft | 189 kts | 4° |
| 2026-04-26 07:12 | 20.11235 | 121.95235 | 7963 ft | 189 kts | 4° |
| 2026-04-26 07:13 | 20.12535 | 121.95321 | 7769 ft | 189 kts | 4° |
| 2026-04-26 07:13 | 20.13845 | 121.95406 | 7573 ft | 190 kts | 4° |
| 2026-04-26 07:13 | 20.15156 | 121.95493 | 7378 ft | 190 kts | 4° |
| 2026-04-26 07:13 | 20.16419 | 121.95248 | 7060 ft | 187 kts | 335° |
| 2026-04-26 07:14 | 20.17502 | 121.94555 | 6656 ft | 180 kts | 331° |
| 2026-04-26 07:14 | 20.18547 | 121.93864 | 6126 ft | 179 kts | 331° |
| 2026-04-26 07:14 | 20.19611 | 121.93171 | 5565 ft | 184 kts | 331° |
| 2026-04-26 07:14 | 20.20713 | 121.92451 | 5303 ft | 185 kts | 330° |
| 2026-04-26 07:15 | 20.21778 | 121.91754 | 5052 ft | 178 kts | 330° |
| 2026-04-26 07:15 | 20.22825 | 121.91070 | 4686 ft | 177 kts | 330° |
| 2026-04-26 07:15 | 20.23860 | 121.90394 | 4239 ft | 176 kts | 330° |
| 2026-04-26 07:15 | 20.24900 | 121.89715 | 3731 ft | 174 kts | 330° |
| 2026-04-26 07:16 | 20.25976 | 121.89008 | 3404 ft | 186 kts | 330° |
| 2026-04-26 07:16 | 20.27083 | 121.88285 | 3255 ft | 190 kts | 330° |
| 2026-04-26 07:16 | 20.28203 | 121.87553 | 3085 ft | 190 kts | 330° |
| 2026-04-26 07:16 | 20.29335 | 121.86812 | 2914 ft | 189 kts | 329° |
| 2026-04-26 07:17 | 20.30448 | 121.86083 | 2789 ft | 187 kts | 329° |
| 2026-04-26 07:17 | 20.31545 | 121.85365 | 2664 ft | 186 kts | 329° |
| 2026-04-26 07:17 | 20.32646 | 121.84644 | 2545 ft | 187 kts | 329° |
| 2026-04-26 07:17 | 20.33754 | 121.83919 | 2432 ft | 184 kts | 329° |
| 2026-04-26 07:18 | 20.34871 | 121.83313 | 2285 ft | 182 kts | 349° |
| 2026-04-26 07:18 | 20.36104 | 121.83580 | 1926 ft | 188 kts | 28° |
| 2026-04-26 07:18 | 20.37048 | 121.84435 | 2009 ft | 170 kts | 44° |
| 2026-04-26 07:18 | 20.37791 | 121.85398 | 1867 ft | 174 kts | 51° |
| 2026-04-26 07:19 | 20.38347 | 121.86533 | 1877 ft | 170 kts | 63° |
| 2026-04-26 07:19 | 20.38766 | 121.87710 | 1817 ft | 167 kts | 66° |
| 2026-04-26 07:19 | 20.39147 | 121.88733 | 1836 ft | 128 kts | 63° |
| 2026-04-26 07:19 | 20.39566 | 121.89573 | 1670 ft | 129 kts | 53° |
| 2026-04-26 07:20 | 20.40056 | 121.90365 | 1472 ft | 128 kts | 51° |
| 2026-04-26 07:20 | 20.40554 | 121.91136 | 1376 ft | 124 kts | 47° |
| 2026-04-26 07:20 | 20.41060 | 121.91896 | 1319 ft | 128 kts | 51° |
| 2026-04-26 07:20 | 20.41573 | 121.92691 | 1259 ft | 132 kts | 50° |
| 2026-04-26 07:21 | 20.42091 | 121.93471 | 1160 ft | 125 kts | 48° |
| 2026-04-26 07:21 | 20.42608 | 121.94208 | 1003 ft | 126 kts | 49° |
| 2026-04-26 07:21 | 20.43107 | 121.94970 | 869 ft | 125 kts | 51° |
| 2026-04-26 07:21 | 20.43599 | 121.95711 | 705 ft | 124 kts | 51° |
| 2026-04-26 07:22 | 20.44108 | 121.96471 | 469 ft | 129 kts | 51° |
| 2026-04-26 07:22 | 20.44627 | 121.97259 | 228 ft | 128 kts | 50° |
| 2026-04-26 07:22 | 20.45053 | 121.97900 | 202 ft | 65 kts | 55° |
| 2026-04-26 07:22 | 20.45168 | 121.98074 | 235 ft | 7 kts | 41° |
| 2026-04-26 07:23 | 20.45160 | 121.98078 | 235 ft | 8 kts | 242° |
| 2026-04-26 07:23 | 20.45096 | 121.97971 | 215 ft | 25 kts | 238° |
| 2026-04-26 07:23 | 20.45018 | 121.97851 | 193 ft | 33 kts | 233° |
| 2026-04-26 07:23 | 20.44949 | 121.97748 | 176 ft | 15 kts | 234° |
| 2026-04-26 07:25 | 20.44910 | 121.97606 | 156 ft | 0 kts | 358° |
| 2026-04-26 07:36 | 20.44912 | 121.97607 | 156 ft | 0 kts | 18° |
| 2026-04-26 07:37 | 20.44914 | 121.97613 | 157 ft | 0 kts | 88° |
| 2026-04-26 07:37 | 20.44910 | 121.97643 | 161 ft | 8 kts | 108° |
| 2026-04-26 07:37 | 20.44925 | 121.97711 | 170 ft | 11 kts | 54° |
| 2026-04-26 07:37 | 20.44981 | 121.97800 | 184 ft | 16 kts | 55° |
| 2026-04-26 07:38 | 20.45055 | 121.97911 | 204 ft | 20 kts | 59° |
| 2026-04-26 07:38 | 20.45131 | 121.98016 | 223 ft | 18 kts | 56° |
| 2026-04-26 07:38 | 20.45214 | 121.98152 | 249 ft | 26 kts | 57° |
| 2026-04-26 07:38 | 20.45319 | 121.98317 | 278 ft | 22 kts | 55° |
| 2026-04-26 07:39 | 20.45388 | 121.98422 | 293 ft | 13 kts | 55° |
| 2026-04-26 07:39 | 20.45434 | 121.98489 | 303 ft | 9 kts | 40° |
| 2026-04-26 07:39 | 20.45468 | 121.98531 | 309 ft | 2 kts | 100° |
| 2026-04-26 07:39 | 20.45446 | 121.98513 | 306 ft | 4 kts | 234° |
| 2026-04-26 07:40 | 20.45445 | 121.98511 | 306 ft | 0 kts | 232° |
| 2026-04-26 07:40 | 20.45251 | 121.98212 | 260 ft | 102 kts | 236° |
| 2026-04-26 07:40 | 20.44694 | 121.97351 | 194 ft | 167 kts | 237° |
| 2026-04-26 07:40 | 20.44062 | 121.96317 | 706 ft | 171 kts | 239° |
| 2026-04-26 07:41 | 20.43404 | 121.95248 | 1226 ft | 178 kts | 236° |
| 2026-04-26 07:41 | 20.42640 | 121.94186 | 1800 ft | 192 kts | 231° |
| 2026-04-26 07:41 | 20.41692 | 121.93136 | 2448 ft | 201 kts | 223° |
| 2026-04-26 07:41 | 20.40533 | 121.92352 | 3140 ft | 211 kts | 199° |
| 2026-04-26 07:42 | 20.39025 | 121.92178 | 3585 ft | 220 kts | 179° |
| 2026-04-26 07:42 | 20.37475 | 121.92113 | 4102 ft | 231 kts | 189° |
| 2026-04-26 07:42 | 20.35937 | 121.91426 | 4290 ft | 248 kts | 211° |
| 2026-04-26 07:42 | 20.34497 | 121.90517 | 5095 ft | 236 kts | 212° |
| 2026-04-26 07:43 | 20.33123 | 121.89638 | 5718 ft | 235 kts | 212° |
| 2026-04-26 07:43 | 20.31700 | 121.88730 | 6101 ft | 244 kts | 212° |
| 2026-04-26 07:43 | 20.30239 | 121.87802 | 6596 ft | 245 kts | 212° |
| 2026-04-26 07:43 | 20.28775 | 121.86874 | 7096 ft | 246 kts | 212° |
| 2026-04-26 07:44 | 20.27279 | 121.85932 | 7538 ft | 250 kts | 212° |
| 2026-04-26 07:44 | 20.25798 | 121.85004 | 7946 ft | 253 kts | 212° |
| 2026-04-26 07:44 | 20.24272 | 121.84045 | 8363 ft | 255 kts | 212° |
| 2026-04-26 07:44 | 20.22752 | 121.83091 | 8750 ft | 254 kts | 212° |
| 2026-04-26 07:45 | 20.21219 | 121.82136 | 9034 ft | 258 kts | 212° |
| 2026-04-26 07:45 | 20.19672 | 121.81167 | 9356 ft | 259 kts | 211° |
| 2026-04-26 07:45 | 20.18135 | 121.80207 | 9706 ft | 258 kts | 212° |
| 2026-04-26 07:45 | 20.16565 | 121.79224 | 9948 ft | 263 kts | 211° |
| 2026-04-26 07:46 | 20.14998 | 121.78246 | 10237 ft | 263 kts | 211° |
| 2026-04-26 07:46 | 20.13433 | 121.77267 | 10559 ft | 262 kts | 211° |
| 2026-04-26 07:46 | 20.11851 | 121.76279 | 10813 ft | 264 kts | 211° |
| 2026-04-26 07:46 | 20.10267 | 121.75291 | 11045 ft | 267 kts | 211° |
| 2026-04-26 07:47 | 20.08666 | 121.74293 | 11296 ft | 267 kts | 211° |
| 2026-04-26 07:47 | 20.07053 | 121.73287 | 11556 ft | 268 kts | 211° |
| 2026-04-26 07:47 | 20.05460 | 121.72294 | 11796 ft | 268 kts | 211° |
| 2026-04-26 07:47 | 20.03843 | 121.71286 | 12008 ft | 270 kts | 211° |
| 2026-04-26 07:48 | 20.02221 | 121.70274 | 12227 ft | 271 kts | 211° |
| 2026-04-26 07:48 | 20.00599 | 121.69263 | 12457 ft | 271 kts | 211° |
| 2026-04-26 07:48 | 19.98973 | 121.68250 | 12666 ft | 272 kts | 211° |
| 2026-04-26 07:48 | 19.97358 | 121.67243 | 12859 ft | 273 kts | 211° |
| 2026-04-26 07:49 | 19.95704 | 121.66213 | 13054 ft | 273 kts | 211° |
| 2026-04-26 07:49 | 19.94072 | 121.65196 | 13244 ft | 274 kts | 211° |
| 2026-04-26 07:49 | 19.92435 | 121.64179 | 13427 ft | 274 kts | 211° |
| 2026-04-26 07:50 | 19.89145 | 121.62134 | 13770 ft | 275 kts | 211° |
| 2026-04-26 07:50 | 19.87507 | 121.61114 | 13927 ft | 275 kts | 211° |
| 2026-04-26 07:50 | 19.85844 | 121.60080 | 14078 ft | 276 kts | 211° |
| 2026-04-26 07:50 | 19.84180 | 121.59045 | 14243 ft | 277 kts | 211° |
| 2026-04-26 07:51 | 19.82523 | 121.58014 | 14415 ft | 277 kts | 211° |
| 2026-04-26 07:51 | 19.80882 | 121.56993 | 14569 ft | 277 kts | 211° |
| 2026-04-26 07:51 | 19.79220 | 121.55961 | 14712 ft | 278 kts | 211° |
| 2026-04-26 07:51 | 19.78108 | 121.55270 | 14808 ft | 278 kts | 210° |
| 2026-04-26 07:52 | 19.75877 | 121.53883 | 15003 ft | 279 kts | 210° |
| 2026-04-26 07:52 | 19.74211 | 121.52849 | 15137 ft | 279 kts | 210° |
| 2026-04-26 07:52 | 19.72537 | 121.51809 | 15264 ft | 280 kts | 210° |
| 2026-04-26 07:52 | 19.70845 | 121.50759 | 15394 ft | 280 kts | 210° |
| 2026-04-26 07:53 | 19.69176 | 121.49723 | 15515 ft | 280 kts | 210° |
| 2026-04-26 07:53 | 19.67486 | 121.48674 | 15635 ft | 281 kts | 210° |
| 2026-04-26 07:53 | 19.65820 | 121.47641 | 15750 ft | 281 kts | 210° |
| 2026-04-26 07:53 | 19.64114 | 121.46584 | 15862 ft | 282 kts | 210° |
| 2026-04-26 07:54 | 19.62422 | 121.45534 | 15823 ft | 288 kts | 210° |
| 2026-04-26 07:54 | 19.60697 | 121.44466 | 15827 ft | 290 kts | 210° |
| 2026-04-26 07:54 | 19.58961 | 121.43390 | 15898 ft | 290 kts | 210° |
| 2026-04-26 07:54 | 19.57204 | 121.42301 | 15907 ft | 292 kts | 210° |
| 2026-04-26 07:55 | 19.55440 | 121.41208 | 15907 ft | 294 kts | 210° |
| 2026-04-26 07:55 | 19.53681 | 121.40118 | 15906 ft | 295 kts | 210° |
| 2026-04-26 07:55 | 19.51907 | 121.39020 | 15906 ft | 296 kts | 210° |
| 2026-04-26 07:55 | 19.50133 | 121.37923 | 15906 ft | 297 kts | 210° |
| 2026-04-26 07:56 | 19.48368 | 121.36831 | 15906 ft | 297 kts | 210° |
| 2026-04-26 07:56 | 19.46585 | 121.35728 | 15906 ft | 298 kts | 210° |
| 2026-04-26 07:56 | 19.44787 | 121.34616 | 15905 ft | 298 kts | 210° |
| 2026-04-26 07:56 | 19.42995 | 121.33508 | 15904 ft | 298 kts | 210° |
| 2026-04-26 07:57 | 19.41209 | 121.32404 | 15904 ft | 299 kts | 210° |
| 2026-04-26 07:57 | 19.39428 | 121.31304 | 15905 ft | 300 kts | 210° |
| 2026-04-26 07:57 | 19.37608 | 121.30179 | 15905 ft | 302 kts | 210° |
| 2026-04-26 07:57 | 19.35789 | 121.29055 | 15905 ft | 304 kts | 210° |
| 2026-04-26 07:58 | 19.33969 | 121.27930 | 15905 ft | 305 kts | 210° |
| 2026-04-26 07:58 | 19.32139 | 121.26800 | 15905 ft | 306 kts | 210° |
| 2026-04-26 07:58 | 19.30303 | 121.25667 | 15905 ft | 307 kts | 210° |
| 2026-04-26 07:58 | 19.28464 | 121.24532 | 15905 ft | 307 kts | 210° |
| 2026-04-26 07:59 | 19.26622 | 121.23395 | 15904 ft | 308 kts | 210° |
| 2026-04-26 07:59 | 19.24771 | 121.22254 | 15904 ft | 308 kts | 210° |
| 2026-04-26 07:59 | 19.22907 | 121.21105 | 15904 ft | 308 kts | 210° |
| 2026-04-26 07:59 | 19.21076 | 121.19977 | 15905 ft | 308 kts | 210° |
| 2026-04-26 08:00 | 19.19214 | 121.18829 | 15905 ft | 308 kts | 210° |
| 2026-04-26 08:00 | 19.17371 | 121.17693 | 15905 ft | 308 kts | 210° |
| 2026-04-26 08:00 | 19.15516 | 121.16550 | 15905 ft | 308 kts | 210° |
| 2026-04-26 08:00 | 19.13680 | 121.15419 | 15905 ft | 308 kts | 210° |
| 2026-04-26 08:01 | 19.11812 | 121.14269 | 15905 ft | 308 kts | 210° |
| 2026-04-26 08:01 | 19.09984 | 121.13145 | 15905 ft | 308 kts | 210° |
| 2026-04-26 08:01 | 19.08145 | 121.12013 | 15905 ft | 308 kts | 210° |
| 2026-04-26 08:01 | 19.06289 | 121.10872 | 15905 ft | 307 kts | 210° |
| 2026-04-26 08:02 | 19.04454 | 121.09744 | 15905 ft | 307 kts | 210° |
| 2026-04-26 08:02 | 19.02592 | 121.08600 | 15905 ft | 307 kts | 210° |
| 2026-04-26 08:02 | 19.00761 | 121.07479 | 15905 ft | 307 kts | 210° |
| 2026-04-26 08:02 | 18.98908 | 121.06345 | 15906 ft | 307 kts | 210° |
| 2026-04-26 08:03 | 18.97063 | 121.05213 | 15906 ft | 306 kts | 210° |
| 2026-04-26 08:03 | 18.95228 | 121.04087 | 15906 ft | 306 kts | 211° |
| 2026-04-26 08:03 | 18.93395 | 121.02962 | 15907 ft | 306 kts | 211° |
| 2026-04-26 08:03 | 18.91559 | 121.01836 | 15907 ft | 306 kts | 211° |
| 2026-04-26 08:04 | 18.89724 | 121.00710 | 15907 ft | 305 kts | 211° |
| 2026-04-26 08:04 | 18.87901 | 120.99593 | 15902 ft | 305 kts | 212° |
| 2026-04-26 08:04 | 18.86084 | 120.98476 | 15901 ft | 304 kts | 212° |
| 2026-04-26 08:04 | 18.84257 | 120.97352 | 15901 ft | 304 kts | 212° |
| 2026-04-26 08:05 | 18.82433 | 120.96231 | 15902 ft | 303 kts | 211° |
| 2026-04-26 08:05 | 18.80624 | 120.95121 | 15902 ft | 303 kts | 211° |
| 2026-04-26 08:05 | 18.78808 | 120.94008 | 15902 ft | 302 kts | 211° |
| 2026-04-26 08:05 | 18.76969 | 120.92883 | 15902 ft | 302 kts | 211° |
| 2026-04-26 08:06 | 18.75157 | 120.91774 | 15902 ft | 302 kts | 211° |
| 2026-04-26 08:06 | 18.73351 | 120.90668 | 15902 ft | 302 kts | 211° |
| 2026-04-26 08:06 | 18.71547 | 120.89564 | 15902 ft | 302 kts | 211° |
| 2026-04-26 08:06 | 18.69737 | 120.88457 | 15902 ft | 302 kts | 211° |
| 2026-04-26 08:07 | 18.67902 | 120.87334 | 15903 ft | 302 kts | 211° |
| 2026-04-26 08:07 | 18.66099 | 120.86231 | 15903 ft | 302 kts | 211° |
| 2026-04-26 08:07 | 18.64272 | 120.85113 | 15903 ft | 302 kts | 211° |
| 2026-04-26 08:07 | 18.62464 | 120.84008 | 15903 ft | 302 kts | 211° |
| 2026-04-26 08:08 | 18.60651 | 120.82900 | 15903 ft | 302 kts | 211° |
| 2026-04-26 08:08 | 18.58886 | 120.81737 | 15904 ft | 302 kts | 215° |
| 2026-04-26 08:08 | 18.57704 | 120.80916 | 15902 ft | 302 kts | 215° |
| 2026-04-26 08:08 | 18.55402 | 120.79300 | 15903 ft | 302 kts | 215° |
| 2026-04-26 08:09 | 18.53642 | 120.78060 | 15903 ft | 302 kts | 215° |
| 2026-04-26 08:09 | 18.51918 | 120.76846 | 15904 ft | 302 kts | 215° |
| 2026-04-26 08:09 | 18.50166 | 120.75610 | 15904 ft | 302 kts | 215° |
| 2026-04-26 08:09 | 18.48430 | 120.74387 | 15904 ft | 302 kts | 215° |
| 2026-04-26 08:10 | 18.46699 | 120.73167 | 15904 ft | 302 kts | 215° |
| 2026-04-26 08:10 | 18.44954 | 120.71938 | 15904 ft | 302 kts | 215° |
| 2026-04-26 08:10 | 18.43216 | 120.70714 | 15904 ft | 302 kts | 215° |
| 2026-04-26 08:10 | 18.41465 | 120.69482 | 15904 ft | 302 kts | 215° |
| 2026-04-26 08:11 | 18.39735 | 120.68265 | 15904 ft | 302 kts | 215° |
| 2026-04-26 08:11 | 18.37991 | 120.67037 | 15904 ft | 302 kts | 215° |
| 2026-04-26 08:11 | 18.36239 | 120.65805 | 15904 ft | 302 kts | 215° |
| 2026-04-26 08:11 | 18.34517 | 120.64595 | 15905 ft | 302 kts | 215° |
| 2026-04-26 08:12 | 18.32762 | 120.63361 | 15904 ft | 302 kts | 215° |
| 2026-04-26 08:12 | 18.31027 | 120.62142 | 15905 ft | 302 kts | 215° |
| 2026-04-26 08:12 | 18.29267 | 120.60905 | 15905 ft | 302 kts | 215° |
| 2026-04-26 08:12 | 18.27527 | 120.59683 | 15905 ft | 302 kts | 215° |
| 2026-04-26 08:13 | 18.25784 | 120.58460 | 15905 ft | 302 kts | 215° |
| 2026-04-26 08:13 | 18.24055 | 120.57246 | 15905 ft | 302 kts | 215° |
| 2026-04-26 08:13 | 18.22311 | 120.56022 | 15905 ft | 302 kts | 215° |
| 2026-04-26 08:13 | 18.20567 | 120.54798 | 15905 ft | 302 kts | 215° |
| 2026-04-26 08:14 | 18.18807 | 120.53595 | 15896 ft | 303 kts | 208° |
| 2026-04-26 08:14 | 18.16780 | 120.52954 | 15944 ft | 302 kts | 191° |
| 2026-04-26 08:14 | 18.14717 | 120.52601 | 15914 ft | 303 kts | 188° |
| 2026-04-26 08:14 | 18.12628 | 120.52313 | 15900 ft | 304 kts | 187° |
| 2026-04-26 08:15 | 18.10534 | 120.52049 | 15902 ft | 304 kts | 187° |
| 2026-04-26 08:15 | 18.08432 | 120.51794 | 15906 ft | 304 kts | 186° |
| 2026-04-26 08:15 | 18.06341 | 120.51543 | 15907 ft | 304 kts | 186° |
| 2026-04-26 08:15 | 18.04249 | 120.51293 | 15906 ft | 304 kts | 186° |
| 2026-04-26 08:16 | 18.02138 | 120.51047 | 15906 ft | 304 kts | 185° |
| 2026-04-26 08:16 | 18.00015 | 120.50959 | 15910 ft | 304 kts | 181° |
| 2026-04-26 08:16 | 17.97904 | 120.50928 | 15907 ft | 304 kts | 180° |
| 2026-04-26 08:16 | 17.95788 | 120.50909 | 15906 ft | 305 kts | 180° |
| 2026-04-26 08:17 | 17.93700 | 120.50894 | 15906 ft | 305 kts | 180° |
| 2026-04-26 08:17 | 17.91567 | 120.50880 | 15906 ft | 305 kts | 180° |
| 2026-04-26 08:17 | 17.89459 | 120.50867 | 15906 ft | 305 kts | 180° |
| 2026-04-26 08:17 | 17.87361 | 120.50855 | 15903 ft | 304 kts | 180° |
| 2026-04-26 08:18 | 17.85247 | 120.50842 | 15902 ft | 304 kts | 180° |
| 2026-04-26 08:18 | 17.83113 | 120.50829 | 15902 ft | 304 kts | 180° |
| 2026-04-26 08:18 | 17.81010 | 120.50817 | 15902 ft | 304 kts | 180° |
| 2026-04-26 08:18 | 17.78910 | 120.50805 | 15902 ft | 304 kts | 180° |
| 2026-04-26 08:19 | 17.76795 | 120.50792 | 15902 ft | 304 kts | 180° |
| 2026-04-26 08:19 | 17.74692 | 120.50780 | 15902 ft | 304 kts | 180° |
| 2026-04-26 08:19 | 17.72587 | 120.50767 | 15903 ft | 304 kts | 180° |
| 2026-04-26 08:19 | 17.70456 | 120.50754 | 15903 ft | 304 kts | 180° |
| 2026-04-26 08:20 | 17.68373 | 120.50742 | 15903 ft | 304 kts | 180° |
| 2026-04-26 08:20 | 17.66239 | 120.50730 | 15903 ft | 304 kts | 180° |
| 2026-04-26 08:20 | 17.64145 | 120.50717 | 15903 ft | 304 kts | 180° |
| 2026-04-26 08:20 | 17.62024 | 120.50705 | 15903 ft | 304 kts | 180° |
| 2026-04-26 08:21 | 17.59915 | 120.50692 | 15903 ft | 304 kts | 180° |
| 2026-04-26 08:21 | 17.57805 | 120.50680 | 15903 ft | 304 kts | 180° |
| 2026-04-26 08:21 | 17.55710 | 120.50667 | 15903 ft | 304 kts | 180° |
| 2026-04-26 08:21 | 17.53591 | 120.50655 | 15903 ft | 304 kts | 180° |
| 2026-04-26 08:22 | 17.51471 | 120.50642 | 15904 ft | 304 kts | 180° |
| 2026-04-26 08:22 | 17.49390 | 120.50630 | 15904 ft | 304 kts | 180° |
| 2026-04-26 08:22 | 17.47276 | 120.50618 | 15904 ft | 304 kts | 180° |
| 2026-04-26 08:22 | 17.45136 | 120.50606 | 15904 ft | 304 kts | 180° |
| 2026-04-26 08:23 | 17.43031 | 120.50594 | 15904 ft | 304 kts | 180° |
| 2026-04-26 08:23 | 17.40937 | 120.50581 | 15904 ft | 304 kts | 180° |
| 2026-04-26 08:23 | 17.38802 | 120.50569 | 15904 ft | 304 kts | 180° |
| 2026-04-26 08:23 | 17.36717 | 120.50556 | 15904 ft | 304 kts | 180° |
| 2026-04-26 08:24 | 17.34577 | 120.50544 | 15905 ft | 304 kts | 180° |
| 2026-04-26 08:24 | 17.32490 | 120.50532 | 15905 ft | 304 kts | 180° |
| 2026-04-26 08:24 | 17.30373 | 120.50520 | 15905 ft | 304 kts | 180° |
| 2026-04-26 08:24 | 17.28269 | 120.50507 | 15905 ft | 304 kts | 180° |
| 2026-04-26 08:25 | 17.26152 | 120.50494 | 15905 ft | 305 kts | 180° |
| 2026-04-26 08:25 | 17.24030 | 120.50482 | 15905 ft | 305 kts | 180° |
| 2026-04-26 08:25 | 17.21928 | 120.50470 | 15905 ft | 305 kts | 180° |
| 2026-04-26 08:25 | 17.19790 | 120.50458 | 15905 ft | 305 kts | 180° |
| 2026-04-26 08:26 | 17.17699 | 120.50445 | 15905 ft | 305 kts | 180° |
| 2026-04-26 08:26 | 17.15582 | 120.50433 | 15905 ft | 305 kts | 180° |
| 2026-04-26 08:26 | 17.13466 | 120.50420 | 15905 ft | 305 kts | 180° |
| 2026-04-26 08:26 | 17.11362 | 120.50407 | 15906 ft | 305 kts | 180° |
| 2026-04-26 08:27 | 17.09248 | 120.50397 | 15906 ft | 305 kts | 180° |
| 2026-04-26 08:27 | 17.07112 | 120.50387 | 15906 ft | 305 kts | 180° |
| 2026-04-26 08:27 | 17.05003 | 120.50376 | 15906 ft | 305 kts | 180° |
| 2026-04-26 08:27 | 17.02899 | 120.50364 | 15906 ft | 305 kts | 181° |
| 2026-04-26 08:28 | 17.00787 | 120.50352 | 15906 ft | 305 kts | 181° |
| 2026-04-26 08:28 | 16.98670 | 120.50340 | 15906 ft | 305 kts | 181° |
| 2026-04-26 08:28 | 16.96541 | 120.50328 | 15905 ft | 304 kts | 181° |
| 2026-04-26 08:28 | 16.94435 | 120.50315 | 15905 ft | 304 kts | 181° |
| 2026-04-26 08:29 | 16.92322 | 120.50301 | 15905 ft | 304 kts | 181° |
| 2026-04-26 08:29 | 16.90206 | 120.50286 | 15906 ft | 304 kts | 181° |
| 2026-04-26 08:29 | 16.88124 | 120.50273 | 15901 ft | 304 kts | 181° |
| 2026-04-26 08:29 | 16.86020 | 120.50260 | 15901 ft | 304 kts | 181° |
| 2026-04-26 08:30 | 16.83909 | 120.50248 | 15901 ft | 303 kts | 181° |
| 2026-04-26 08:30 | 16.81797 | 120.50236 | 15901 ft | 303 kts | 181° |
| 2026-04-26 08:30 | 16.79688 | 120.50223 | 15901 ft | 303 kts | 181° |
| 2026-04-26 08:30 | 16.77594 | 120.50211 | 15899 ft | 303 kts | 181° |
| 2026-04-26 08:31 | 16.75491 | 120.50199 | 15896 ft | 303 kts | 181° |
| 2026-04-26 08:31 | 16.73357 | 120.50186 | 15892 ft | 303 kts | 181° |
| 2026-04-26 08:31 | 16.71267 | 120.50174 | 15889 ft | 303 kts | 181° |
| 2026-04-26 08:31 | 16.69169 | 120.50162 | 15885 ft | 304 kts | 181° |
| 2026-04-26 08:32 | 16.67047 | 120.50150 | 15882 ft | 304 kts | 181° |
| 2026-04-26 08:32 | 16.64960 | 120.50138 | 15879 ft | 304 kts | 181° |
| 2026-04-26 08:32 | 16.62837 | 120.50126 | 15875 ft | 304 kts | 181° |
| 2026-04-26 08:32 | 16.60733 | 120.50114 | 15875 ft | 304 kts | 181° |
| 2026-04-26 08:33 | 16.58627 | 120.50102 | 15875 ft | 304 kts | 181° |
| 2026-04-26 08:33 | 16.56521 | 120.50089 | 15876 ft | 304 kts | 181° |
| 2026-04-26 08:33 | 16.54415 | 120.50077 | 15875 ft | 304 kts | 181° |
| 2026-04-26 08:33 | 16.52309 | 120.50065 | 15876 ft | 304 kts | 181° |
| 2026-04-26 08:34 | 16.50204 | 120.50053 | 15876 ft | 304 kts | 181° |
| 2026-04-26 08:34 | 16.48081 | 120.50040 | 15876 ft | 304 kts | 181° |
| 2026-04-26 08:34 | 16.45981 | 120.50027 | 15876 ft | 304 kts | 181° |
| 2026-04-26 08:34 | 16.43857 | 120.50015 | 15876 ft | 304 kts | 181° |
| 2026-04-26 08:35 | 16.41765 | 120.50002 | 15876 ft | 304 kts | 181° |
| 2026-04-26 08:35 | 16.39659 | 120.49990 | 15876 ft | 304 kts | 181° |
| 2026-04-26 08:35 | 16.37533 | 120.49979 | 15876 ft | 304 kts | 181° |
| 2026-04-26 08:35 | 16.35449 | 120.49966 | 15876 ft | 304 kts | 181° |
| 2026-04-26 08:36 | 16.33338 | 120.49954 | 15877 ft | 304 kts | 181° |
| 2026-04-26 08:36 | 16.31229 | 120.49942 | 15877 ft | 304 kts | 181° |
| 2026-04-26 08:36 | 16.29096 | 120.49929 | 15877 ft | 304 kts | 181° |
| 2026-04-26 08:36 | 16.26982 | 120.49917 | 15877 ft | 304 kts | 181° |
| 2026-04-26 08:37 | 16.24882 | 120.49905 | 15877 ft | 304 kts | 181° |
| 2026-04-26 08:37 | 16.22759 | 120.49893 | 15877 ft | 304 kts | 181° |
| 2026-04-26 08:37 | 16.20675 | 120.49881 | 15873 ft | 304 kts | 181° |
| 2026-04-26 08:37 | 16.18526 | 120.49867 | 15665 ft | 306 kts | 181° |
| 2026-04-26 08:38 | 16.16468 | 120.49852 | 15430 ft | 289 kts | 181° |
| 2026-04-26 08:38 | 16.14524 | 120.49844 | 15201 ft | 275 kts | 182° |
| 2026-04-26 08:38 | 16.12647 | 120.49836 | 14824 ft | 269 kts | 182° |
| 2026-04-26 08:38 | 16.10767 | 120.49827 | 14288 ft | 271 kts | 182° |
| 2026-04-26 08:39 | 16.08904 | 120.49817 | 13799 ft | 269 kts | 182° |
| 2026-04-26 08:39 | 16.07059 | 120.49807 | 13353 ft | 266 kts | 182° |
| 2026-04-26 08:39 | 16.05211 | 120.49797 | 12886 ft | 263 kts | 183° |
| 2026-04-26 08:39 | 16.03415 | 120.49786 | 12423 ft | 261 kts | 183° |
| 2026-04-26 08:40 | 16.01597 | 120.49776 | 11962 ft | 259 kts | 183° |
| 2026-04-26 08:40 | 15.99806 | 120.49765 | 11515 ft | 257 kts | 183° |
| 2026-04-26 08:40 | 15.98051 | 120.49755 | 11080 ft | 254 kts | 183° |
| 2026-04-26 08:40 | 15.96277 | 120.49744 | 10640 ft | 252 kts | 184° |
| 2026-04-26 08:41 | 15.94559 | 120.49734 | 10214 ft | 250 kts | 184° |
| 2026-04-26 08:41 | 15.92819 | 120.49723 | 9784 ft | 247 kts | 184° |
| 2026-04-26 08:41 | 15.91127 | 120.49713 | 9366 ft | 245 kts | 184° |
| 2026-04-26 08:41 | 15.89448 | 120.49702 | 8952 ft | 243 kts | 184° |
| 2026-04-26 08:42 | 15.87764 | 120.49693 | 8534 ft | 240 kts | 184° |
| 2026-04-26 08:42 | 15.86116 | 120.49683 | 8126 ft | 238 kts | 184° |
| 2026-04-26 08:42 | 15.84441 | 120.49673 | 7801 ft | 245 kts | 184° |
| 2026-04-26 08:42 | 15.82729 | 120.49661 | 7611 ft | 247 kts | 184° |
| 2026-04-26 08:43 | 15.81003 | 120.49650 | 7413 ft | 248 kts | 184° |
| 2026-04-26 08:43 | 15.79261 | 120.49639 | 7211 ft | 249 kts | 184° |
| 2026-04-26 08:43 | 15.77531 | 120.49628 | 7011 ft | 249 kts | 184° |
| 2026-04-26 08:43 | 15.75799 | 120.49618 | 6811 ft | 250 kts | 184° |
| 2026-04-26 08:44 | 15.74065 | 120.49608 | 6610 ft | 250 kts | 184° |
| 2026-04-26 08:44 | 15.72338 | 120.49598 | 6409 ft | 250 kts | 184° |
| 2026-04-26 08:44 | 15.70602 | 120.49588 | 6208 ft | 249 kts | 183° |
| 2026-04-26 08:44 | 15.68876 | 120.49614 | 6010 ft | 255 kts | 177° |
| 2026-04-26 08:45 | 15.67120 | 120.49899 | 5950 ft | 250 kts | 173° |
| 2026-04-26 08:45 | 15.65441 | 120.50215 | 5884 ft | 245 kts | 173° |
| 2026-04-26 08:45 | 15.63764 | 120.50545 | 5711 ft | 244 kts | 172° |
| 2026-04-26 08:45 | 15.62115 | 120.50878 | 5542 ft | 245 kts | 172° |
| 2026-04-26 08:46 | 15.60457 | 120.51216 | 5360 ft | 242 kts | 172° |
| 2026-04-26 08:46 | 15.58802 | 120.51556 | 5179 ft | 240 kts | 172° |
| 2026-04-26 08:46 | 15.57133 | 120.51897 | 5079 ft | 250 kts | 172° |
| 2026-04-26 08:46 | 15.55423 | 120.52245 | 5035 ft | 253 kts | 172° |
| 2026-04-26 08:47 | 15.53675 | 120.52602 | 4986 ft | 253 kts | 172° |
| 2026-04-26 08:47 | 15.51968 | 120.52943 | 4925 ft | 250 kts | 173° |
| 2026-04-26 08:47 | 15.50277 | 120.53213 | 4862 ft | 243 kts | 174° |
| 2026-04-26 08:47 | 15.48634 | 120.53469 | 4798 ft | 236 kts | 174° |
| 2026-04-26 08:48 | 15.47032 | 120.53719 | 4737 ft | 231 kts | 174° |
| 2026-04-26 08:48 | 15.45460 | 120.54092 | 4648 ft | 232 kts | 161° |
| 2026-04-26 08:48 | 15.44007 | 120.54771 | 4589 ft | 225 kts | 158° |
| 2026-04-26 08:48 | 15.42666 | 120.55426 | 4274 ft | 211 kts | 158° |
| 2026-04-26 08:49 | 15.41335 | 120.56082 | 3587 ft | 216 kts | 158° |
| 2026-04-26 08:49 | 15.39979 | 120.56747 | 2971 ft | 217 kts | 158° |
| 2026-04-26 08:49 | 15.38572 | 120.57434 | 2643 ft | 231 kts | 158° |
| 2026-04-26 08:49 | 15.37146 | 120.58122 | 2595 ft | 218 kts | 158° |
| 2026-04-26 08:50 | 15.35830 | 120.58759 | 2572 ft | 197 kts | 158° |
| 2026-04-26 08:50 | 15.34659 | 120.59335 | 2568 ft | 178 kts | 158° |
| 2026-04-26 08:50 | 15.33568 | 120.59880 | 2489 ft | 169 kts | 157° |
| 2026-04-26 08:50 | 15.32512 | 120.60418 | 2381 ft | 168 kts | 158° |
| 2026-04-26 08:51 | 15.30507 | 120.61069 | 2434 ft | 138 kts | 197° |
| 2026-04-26 08:51 | 15.29649 | 120.60725 | 2274 ft | 128 kts | 206° |